Time;durP1;ratioP1;P1;durP2;ratioP2;P2;SDS_P1;SDS_P2;PMS_P1;PMS_P2;Temp;Humidity;BMP_temperature;BMP_pressure;BME280_temperature;BME280_humidity;BME280_pressure;Samples;Min_cycle;Max_cycle;Signal;HPM_P1;HPM_P2
2023/12/12 00:00:29;;;;;;;10.40;2.70;;;;;;;;;;5011694;28;20042;-75
2023/12/12 00:02:58;;;;;;;12.15;2.90;;;;;;;;;;5012671;28;20058;-74
2023/12/12 00:05:25;;;;;;;10.35;3.00;;;;;;;;;;5013926;28;20050;-74
2023/12/12 00:07:51;;;;;;;13.82;2.70;;;;;;;;;;5013512;28;20046;-75
2023/12/12 00:10:17;;;;;;;11.10;2.80;;;;;;;;;;5001124;28;20084;-74
2023/12/12 00:12:44;;;;;;;10.82;3.10;;;;;;;;;;5010727;28;20619;-74
2023/12/12 00:15:10;;;;;;;11.70;3.00;;;;;;;;;;5006652;28;20038;-74
2023/12/12 00:17:37;;;;;;;10.98;2.88;;;;;;;;;;5011560;28;20401;-74
2023/12/12 00:20:04;;;;;;;9.35;2.90;;;;;;;;;;5001041;28;20055;-75
2023/12/12 00:22:30;;;;;;;13.10;3.10;;;;;;;;;;5004554;28;20103;-74
2023/12/12 00:24:56;;;;;;;13.05;3.10;;;;;;;;;;5009425;28;20053;-74
2023/12/12 00:27:22;;;;;;;12.52;3.10;;;;;;;;;;4993553;28;20056;-74
2023/12/12 00:29:48;;;;;;;12.68;2.97;;;;;;;;;;4998044;28;20148;-74
2023/12/12 00:32:15;;;;;;;8.95;2.80;;;;;;;;;;4999555;28;20121;-74
2023/12/12 00:34:41;;;;;;;10.00;2.92;;;;;;;;;;5008556;28;20038;-74
2023/12/12 00:37:07;;;;;;;11.38;2.90;;;;;;;;;;5007862;28;20046;-74
2023/12/12 00:39:39;;;;;;;12.90;2.78;;;;;;;;;;5004915;28;20041;-74
2023/12/12 00:42:06;;;;;;;8.55;2.80;;;;;;;;;;5011466;28;20396;-74
2023/12/12 00:44:32;;;;;;;11.13;2.95;;;;;;;;;;5000808;28;20042;-75
2023/12/12 00:46:58;;;;;;;10.88;2.78;;;;;;;;;;5008473;28;20546;-75
2023/12/12 00:49:24;;;;;;;10.98;3.20;;;;;;;;;;5013075;28;20459;-75
2023/12/12 00:51:50;;;;;;;17.25;3.30;;;;;;;;;;5011995;28;20376;-74
2023/12/12 00:54:16;;;;;;;9.45;3.22;;;;;;;;;;5012710;28;20435;-75
2023/12/12 00:56:44;;;;;;;11.15;2.92;;;;;;;;;;5011500;28;20128;-75
2023/12/12 00:59:10;;;;;;;11.07;3.00;;;;;;;;;;5012341;28;20050;-75
2023/12/12 01:01:36;;;;;;;11.75;2.97;;;;;;;;;;5012871;28;20050;-75
2023/12/12 01:04:02;;;;;;;12.95;3.10;;;;;;;;;;5012965;28;20492;-75
2023/12/12 01:06:28;;;;;;;11.68;2.90;;;;;;;;;;5012560;28;20491;-75
2023/12/12 01:08:54;;;;;;;12.35;3.40;;;;;;;;;;5012588;28;20492;-75
2023/12/12 01:11:20;;;;;;;11.60;3.15;;;;;;;;;;5012646;28;20447;-75
2023/12/12 01:13:48;;;;;;;13.10;2.90;;;;;;;;;;5012872;28;20073;-75
2023/12/12 01:16:14;;;;;;;12.38;2.85;;;;;;;;;;5009207;28;20042;-74
2023/12/12 01:18:40;;;;;;;13.98;3.15;;;;;;;;;;5010210;28;20054;-74
2023/12/12 01:21:06;;;;;;;10.77;2.80;;;;;;;;;;5007590;28;20061;-74
2023/12/12 01:23:51;;;;;;;10.98;2.70;;;;;;;;;;5011094;28;20049;-74
2023/12/12 01:26:19;;;;;;;10.60;2.75;;;;;;;;;;4998166;28;20043;-74
2023/12/12 01:28:45;;;;;;;7.35;2.55;;;;;;;;;;4994097;28;20038;-75
2023/12/12 01:31:11;;;;;;;11.70;2.92;;;;;;;;;;5006664;28;20050;-75
2023/12/12 01:33:38;;;;;;;11.07;2.88;;;;;;;;;;5011533;28;20088;-74
2023/12/12 01:36:04;;;;;;;11.77;2.97;;;;;;;;;;5001887;28;20049;-74
2023/12/12 01:38:31;;;;;;;10.95;2.75;;;;;;;;;;5011578;28;20381;-74
2023/12/12 01:40:57;;;;;;;13.73;2.90;;;;;;;;;;5011745;28;20050;-74
2023/12/12 01:43:28;;;;;;;9.57;2.90;;;;;;;;;;5007558;28;20475;-74
2023/12/12 01:45:55;;;;;;;10.48;2.72;;;;;;;;;;5008047;28;20058;-75
2023/12/12 01:48:21;;;;;;;13.45;2.85;;;;;;;;;;5009764;28;20117;-75
2023/12/12 01:50:47;;;;;;;12.43;2.72;;;;;;;;;;4995382;28;20046;-75
2023/12/12 01:53:14;;;;;;;11.15;3.30;;;;;;;;;;5016340;28;20046;-75
2023/12/12 01:55:41;;;;;;;11.27;2.70;;;;;;;;;;5008792;28;20048;-75
2023/12/12 01:58:07;;;;;;;12.82;3.03;;;;;;;;;;5015574;28;20049;-75
2023/12/12 02:00:33;;;;;;;10.05;2.70;;;;;;;;;;5016037;28;20510;-75
2023/12/12 02:02:59;;;;;;;10.13;2.83;;;;;;;;;;5015835;28;20065;-75
2023/12/12 02:05:26;;;;;;;15.80;3.30;;;;;;;;;;5021565;28;20515;-75
2023/12/12 02:07:53;;;;;;;13.88;2.97;;;;;;;;;;5020084;28;20050;-74
2023/12/12 02:10:19;;;;;;;10.25;3.13;;;;;;;;;;5012640;28;20408;-75
2023/12/12 02:12:45;;;;;;;13.88;3.08;;;;;;;;;;5016041;28;20099;-75
2023/12/12 02:15:12;;;;;;;9.77;3.05;;;;;;;;;;5015915;28;20042;-75
2023/12/12 02:17:38;;;;;;;13.45;3.28;;;;;;;;;;5014454;28;20042;-75
2023/12/12 02:20:05;;;;;;;9.93;3.15;;;;;;;;;;5014677;28;20096;-75
2023/12/12 02:22:31;;;;;;;11.10;3.13;;;;;;;;;;5014742;28;20384;-75
2023/12/12 02:24:57;;;;;;;13.50;3.42;;;;;;;;;;5014353;28;20042;-75
2023/12/12 02:27:23;;;;;;;10.13;2.67;;;;;;;;;;5003655;28;20054;-75
2023/12/12 02:29:49;;;;;;;11.35;3.33;;;;;;;;;;5009925;28;20510;-75
2023/12/12 02:32:16;;;;;;;10.23;3.25;;;;;;;;;;5001827;28;20046;-75
2023/12/12 02:34:42;;;;;;;9.70;3.15;;;;;;;;;;4998906;28;20054;-75
2023/12/12 02:37:08;;;;;;;15.85;3.30;;;;;;;;;;5001424;28;20042;-75
2023/12/12 02:39:34;;;;;;;13.18;3.03;;;;;;;;;;5010428;28;20050;-75
2023/12/12 02:42:00;;;;;;;9.73;3.70;;;;;;;;;;5014042;28;20049;-75
2023/12/12 02:44:26;;;;;;;11.45;3.45;;;;;;;;;;5001745;28;20054;-75
2023/12/12 02:46:52;;;;;;;11.95;3.22;;;;;;;;;;5010485;28;20034;-75
2023/12/12 02:49:18;;;;;;;9.52;2.95;;;;;;;;;;4999702;28;20050;-75
2023/12/12 02:51:45;;;;;;;10.23;3.40;;;;;;;;;;5007697;28;20600;-75
2023/12/12 02:54:11;;;;;;;10.10;3.80;;;;;;;;;;4994405;28;20091;-75
2023/12/12 02:56:37;;;;;;;10.45;3.95;;;;;;;;;;5013809;28;20061;-75
2023/12/12 02:59:03;;;;;;;12.70;4.13;;;;;;;;;;5011245;28;20464;-75
2023/12/12 03:01:29;;;;;;;11.43;4.38;;;;;;;;;;4996544;28;20038;-75
2023/12/12 03:03:55;;;;;;;14.18;4.85;;;;;;;;;;5011282;28;20507;-75
2023/12/12 03:06:21;;;;;;;16.50;5.20;;;;;;;;;;5014539;28;20503;-75
2023/12/12 03:08:47;;;;;;;14.95;5.05;;;;;;;;;;5009866;28;20420;-75
2023/12/12 03:11:13;;;;;;;11.02;4.68;;;;;;;;;;5002733;28;20124;-75
2023/12/12 03:13:39;;;;;;;14.55;4.60;;;;;;;;;;5014319;28;20491;-75
2023/12/12 03:16:05;;;;;;;16.55;5.75;;;;;;;;;;5001622;28;20057;-75
2023/12/12 03:18:31;;;;;;;15.75;6.15;;;;;;;;;;5014545;28;20046;-75
2023/12/12 03:20:59;;;;;;;19.50;5.95;;;;;;;;;;5013823;28;20072;-75
2023/12/12 03:23:26;;;;;;;15.25;6.07;;;;;;;;;;5014660;28;20056;-75
2023/12/12 03:25:52;;;;;;;15.48;6.75;;;;;;;;;;5014590;28;20403;-75
2023/12/12 03:28:18;;;;;;;18.10;5.80;;;;;;;;;;5013038;28;20053;-75
2023/12/12 03:30:44;;;;;;;14.77;5.88;;;;;;;;;;5013744;28;20161;-75
2023/12/12 03:33:10;;;;;;;16.50;6.28;;;;;;;;;;4996374;28;20042;-75
2023/12/12 03:35:36;;;;;;;18.30;6.82;;;;;;;;;;4994758;28;20044;-75
2023/12/12 03:38:03;;;;;;;16.67;6.07;;;;;;;;;;5010162;28;20103;-75
2023/12/12 03:40:29;;;;;;;11.95;5.97;;;;;;;;;;5014108;28;20129;-75
2023/12/12 03:42:55;;;;;;;15.57;6.78;;;;;;;;;;4997946;28;20054;-75
2023/12/12 03:45:21;;;;;;;16.35;7.15;;;;;;;;;;4996207;28;20057;-75
2023/12/12 03:47:47;;;;;;;12.23;6.28;;;;;;;;;;5010198;28;20546;-75
2023/12/12 03:50:13;;;;;;;15.98;6.20;;;;;;;;;;4994308;28;20140;-75
2023/12/12 03:52:40;;;;;;;20.05;7.15;;;;;;;;;;5003406;28;20045;-75
2023/12/12 03:55:07;;;;;;;15.25;7.05;;;;;;;;;;4998557;28;20404;-75
2023/12/12 03:57:33;;;;;;;20.10;7.47;;;;;;;;;;5011996;28;20042;-75
2023/12/12 03:59:59;;;;;;;16.52;6.82;;;;;;;;;;4998609;28;20121;-75
2023/12/12 04:02:25;;;;;;;17.80;6.97;;;;;;;;;;5012226;28;20050;-75
2023/12/12 04:04:51;;;;;;;14.57;7.22;;;;;;;;;;5013065;28;20054;-75
2023/12/12 04:07:18;;;;;;;15.75;6.70;;;;;;;;;;5009466;28;20046;-75
2023/12/12 04:09:44;;;;;;;15.23;6.35;;;;;;;;;;5014019;28;20041;-75
2023/12/12 04:12:10;;;;;;;16.08;6.40;;;;;;;;;;5004861;28;20061;-75
2023/12/12 04:14:36;;;;;;;17.95;7.40;;;;;;;;;;4997259;28;20045;-75
2023/12/12 04:17:03;;;;;;;15.50;7.15;;;;;;;;;;5005896;28;20049;-75
2023/12/12 04:19:29;;;;;;;17.33;7.10;;;;;;;;;;5011365;28;20061;-75
2023/12/12 04:21:55;;;;;;;17.50;6.72;;;;;;;;;;5012967;28;20133;-75
2023/12/12 04:24:21;;;;;;;16.77;7.75;;;;;;;;;;5011487;28;20049;-75
2023/12/12 04:26:47;;;;;;;15.43;7.55;;;;;;;;;;5010375;28;20042;-74
2023/12/12 04:29:13;;;;;;;17.15;7.93;;;;;;;;;;5006845;28;20050;-75
2023/12/12 04:31:39;;;;;;;17.48;8.07;;;;;;;;;;5008655;28;20085;-75
2023/12/12 04:34:05;;;;;;;22.92;8.48;;;;;;;;;;5007043;28;20046;-75
2023/12/12 04:36:33;;;;;;;16.58;8.38;;;;;;;;;;4996832;28;20504;-75
2023/12/12 04:38:59;;;;;;;22.45;9.02;;;;;;;;;;5003754;28;20049;-75
2023/12/12 04:41:25;;;;;;;18.92;9.02;;;;;;;;;;4996281;28;20046;-75
2023/12/12 04:43:51;;;;;;;17.50;8.15;;;;;;;;;;5000127;28;20043;-75
2023/12/12 04:46:20;;;;;;;24.30;9.10;;;;;;;;;;5008480;28;20053;-75
2023/12/12 04:48:46;;;;;;;19.88;8.77;;;;;;;;;;5001148;28;20050;-75
2023/12/12 04:51:13;;;;;;;24.77;9.70;;;;;;;;;;5005562;28;20073;-75
2023/12/12 04:53:39;;;;;;;18.27;9.00;;;;;;;;;;5012645;28;20052;-75
2023/12/12 04:56:05;;;;;;;19.30;9.18;;;;;;;;;;5012046;28;20042;-75
2023/12/12 04:58:31;;;;;;;19.70;9.40;;;;;;;;;;5010381;28;20092;-75
2023/12/12 05:00:57;;;;;;;27.63;10.55;;;;;;;;;;4993500;28;20061;-75
2023/12/12 05:03:23;;;;;;;20.63;8.18;;;;;;;;;;5006287;28;20488;-75
2023/12/12 05:05:50;;;;;;;30.58;10.77;;;;;;;;;;5012354;28;20045;-75
2023/12/12 05:08:16;;;;;;;21.90;10.15;;;;;;;;;;5002730;28;20473;-74
2023/12/12 05:10:42;;;;;;;26.90;10.57;;;;;;;;;;5005789;28;20045;-75
2023/12/12 05:13:08;;;;;;;29.23;10.45;;;;;;;;;;5011733;28;20103;-75
2023/12/12 05:15:34;;;;;;;21.20;9.80;;;;;;;;;;5003782;28;20042;-75
2023/12/12 05:18:00;;;;;;;38.58;11.93;;;;;;;;;;4993911;28;20046;-75
2023/12/12 05:20:26;;;;;;;31.05;11.35;;;;;;;;;;5004350;28;20511;-75
2023/12/12 05:22:52;;;;;;;106.82;12.90;;;;;;;;;;5006405;28;20042;-75
2023/12/12 05:25:18;;;;;;;51.55;12.18;;;;;;;;;;4993358;28;20046;-75
2023/12/12 05:27:44;;;;;;;148.25;13.50;;;;;;;;;;5004570;28;20050;-75
2023/12/12 05:30:12;;;;;;;87.30;11.35;;;;;;;;;;5004108;28;20460;-75
2023/12/12 05:32:39;;;;;;;388.38;16.95;;;;;;;;;;5004667;28;20419;-75
2023/12/12 05:35:07;;;;;;;247.98;14.13;;;;;;;;;;5003491;28;20125;-75
2023/12/12 05:37:33;;;;;;;147.50;12.50;;;;;;;;;;5014600;28;20042;-75
2023/12/12 05:39:59;;;;;;;170.18;13.75;;;;;;;;;;5015723;28;20050;-75
2023/12/12 05:42:26;;;;;;;251.55;14.95;;;;;;;;;;5003743;28;20046;-75
2023/12/12 05:44:52;;;;;;;36.22;10.18;;;;;;;;;;4997585;28;20057;-75
2023/12/12 05:47:18;;;;;;;44.88;10.63;;;;;;;;;;5010944;28;20108;-74
2023/12/12 05:49:44;;;;;;;33.38;9.65;;;;;;;;;;5008664;28;20050;-75
2023/12/12 05:52:10;;;;;;;67.55;12.07;;;;;;;;;;5010731;28;20045;-75
2023/12/12 05:54:37;;;;;;;191.38;13.18;;;;;;;;;;5015032;28;20076;-75
2023/12/12 05:57:03;;;;;;;338.13;19.63;;;;;;;;;;5011898;28;20038;-74
2023/12/12 05:59:29;;;;;;;143.27;11.18;;;;;;;;;;5015677;28;20488;-75
2023/12/12 06:01:55;;;;;;;171.10;10.35;;;;;;;;;;5011901;28;20537;-75
2023/12/12 06:04:21;;;;;;;97.25;9.98;;;;;;;;;;5015799;28;20046;-75
2023/12/12 06:06:47;;;;;;;112.97;10.73;;;;;;;;;;5004857;28;20097;-75
2023/12/12 06:09:13;;;;;;;107.28;10.82;;;;;;;;;;5013420;28;20046;-75
2023/12/12 06:11:39;;;;;;;162.55;11.82;;;;;;;;;;5010452;28;20042;-75
2023/12/12 06:14:06;;;;;;;144.77;11.60;;;;;;;;;;5001625;28;20085;-74
2023/12/12 06:16:32;;;;;;;188.27;11.38;;;;;;;;;;5005544;28;20128;-75
2023/12/12 06:18:58;;;;;;;185.90;12.43;;;;;;;;;;5014979;28;20038;-75
2023/12/12 06:21:24;;;;;;;144.65;11.55;;;;;;;;;;5007998;28;20485;-75
2023/12/12 06:23:50;;;;;;;89.78;9.52;;;;;;;;;;5001418;28;20046;-75
2023/12/12 06:26:16;;;;;;;82.80;10.45;;;;;;;;;;5011849;28;20053;-75
2023/12/12 06:28:42;;;;;;;58.50;9.40;;;;;;;;;;5012647;28;20057;-75
2023/12/12 06:31:08;;;;;;;85.50;11.32;;;;;;;;;;5009024;28;20053;-75
2023/12/12 06:33:35;;;;;;;120.28;13.20;;;;;;;;;;5005395;28;20046;-75
2023/12/12 06:36:01;;;;;;;97.65;12.07;;;;;;;;;;4999171;28;20050;-75
2023/12/12 06:38:27;;;;;;;133.10;14.07;;;;;;;;;;4995291;28;20042;-75
2023/12/12 06:40:54;;;;;;;69.80;12.55;;;;;;;;;;5008889;28;20046;-75
2023/12/12 06:43:20;;;;;;;51.92;12.73;;;;;;;;;;5005333;28;20484;-75
2023/12/12 06:45:46;;;;;;;69.43;12.98;;;;;;;;;;5007885;28;20050;-75
2023/12/12 06:48:12;;;;;;;89.15;13.90;;;;;;;;;;5012112;28;20132;-75
2023/12/12 06:50:38;;;;;;;37.55;11.38;;;;;;;;;;5010003;28;20488;-75
2023/12/12 06:53:04;;;;;;;31.92;12.07;;;;;;;;;;5003074;28;20415;-75
2023/12/12 06:55:30;;;;;;;84.88;14.30;;;;;;;;;;5014153;28;20070;-75
2023/12/12 06:57:57;;;;;;;34.90;12.50;;;;;;;;;;5011723;28;20045;-75
2023/12/12 07:00:24;;;;;;;93.97;14.45;;;;;;;;;;5011848;28;20058;-75
2023/12/12 07:02:50;;;;;;;94.90;14.27;;;;;;;;;;5003560;28;20042;-75
2023/12/12 07:05:17;;;;;;;76.82;14.25;;;;;;;;;;5009131;28;20042;-75
2023/12/12 07:07:43;;;;;;;47.45;12.75;;;;;;;;;;4994329;28;20397;-75
2023/12/12 07:10:09;;;;;;;44.45;12.75;;;;;;;;;;4994211;28;20054;-75
2023/12/12 07:12:36;;;;;;;53.45;13.57;;;;;;;;;;4994530;28;20104;-75
2023/12/12 07:15:02;;;;;;;26.23;12.13;;;;;;;;;;5011494;28;20041;-75
2023/12/12 07:17:28;;;;;;;38.92;13.30;;;;;;;;;;5013818;28;20088;-75
2023/12/12 07:19:55;;;;;;;47.15;15.02;;;;;;;;;;4975472;28;1074591;-75
2023/12/12 07:22:21;;;;;;;43.08;13.93;;;;;;;;;;5013024;28;20050;-75
2023/12/12 07:24:47;;;;;;;62.17;15.82;;;;;;;;;;4995137;28;20038;-75
2023/12/12 07:27:13;;;;;;;51.80;15.63;;;;;;;;;;5009780;28;20498;-75
2023/12/12 07:29:39;;;;;;;43.42;15.05;;;;;;;;;;5002736;28;20046;-75
2023/12/12 07:32:06;;;;;;;75.60;17.17;;;;;;;;;;5008288;28;20038;-75
2023/12/12 07:34:32;;;;;;;97.55;19.13;;;;;;;;;;4999198;28;20042;-75
2023/12/12 07:36:58;;;;;;;66.28;17.75;;;;;;;;;;4999452;28;20046;-74
2023/12/12 07:39:24;;;;;;;77.60;18.35;;;;;;;;;;4994207;28;20042;-74
2023/12/12 07:41:50;;;;;;;68.57;18.50;;;;;;;;;;5001427;28;20058;-75
2023/12/12 07:44:17;;;;;;;100.47;21.15;;;;;;;;;;5009380;28;20050;-75
2023/12/12 07:46:43;;;;;;;71.18;20.30;;;;;;;;;;5009692;28;20039;-75
2023/12/12 07:49:12;;;;;;;77.22;19.73;;;;;;;;;;5003715;28;20050;-75
2023/12/12 07:51:38;;;;;;;183.45;23.80;;;;;;;;;;4997945;28;20045;-75
2023/12/12 07:54:06;;;;;;;191.45;24.58;;;;;;;;;;5011682;28;20459;-75
2023/12/12 07:56:32;;;;;;;184.95;23.73;;;;;;;;;;5013560;28;20064;-75
2023/12/12 07:58:58;;;;;;;243.98;27.30;;;;;;;;;;5013641;28;20046;-75
2023/12/12 08:01:24;;;;;;;249.48;26.83;;;;;;;;;;5012125;28;20053;-75
2023/12/12 08:03:50;;;;;;;127.68;24.65;;;;;;;;;;5013006;28;20111;-75
2023/12/12 08:06:17;;;;;;;284.98;28.02;;;;;;;;;;5013058;28;20117;-75
2023/12/12 08:08:43;;;;;;;198.57;28.27;;;;;;;;;;5012776;28;20140;-75
2023/12/12 08:11:15;;;;;;;298.30;27.05;;;;;;;;;;5013449;28;20399;-75
2023/12/12 08:13:41;;;;;;;197.50;27.83;;;;;;;;;;5011688;28;20126;-75
2023/12/12 08:16:07;;;;;;;425.35;30.92;;;;;;;;;;5012967;28;20056;-75
2023/12/12 08:18:34;;;;;;;451.13;30.58;;;;;;;;;;4992430;28;20048;-75
2023/12/12 08:21:00;;;;;;;417.40;29.65;;;;;;;;;;5008077;28;20058;-75
2023/12/12 08:23:27;;;;;;;446.83;30.15;;;;;;;;;;5008922;28;20103;-75
2023/12/12 08:25:53;;;;;;;493.40;32.25;;;;;;;;;;5010648;28;20404;-75
2023/12/12 08:28:19;;;;;;;374.85;28.17;;;;;;;;;;5011274;28;20132;-75
2023/12/12 08:30:45;;;;;;;493.48;30.90;;;;;;;;;;5011561;28;20042;-75
2023/12/12 08:33:11;;;;;;;463.30;30.75;;;;;;;;;;5010275;28;20115;-75
2023/12/12 08:35:38;;;;;;;440.45;29.42;;;;;;;;;;5011482;28;20044;-75
2023/12/12 08:38:04;;;;;;;423.67;30.45;;;;;;;;;;5010935;28;20108;-75
2023/12/12 08:40:30;;;;;;;324.40;26.75;;;;;;;;;;5012621;28;20042;-75
2023/12/12 08:42:56;;;;;;;257.83;25.45;;;;;;;;;;5007590;28;20050;-75
2023/12/12 08:45:22;;;;;;;229.48;24.58;;;;;;;;;;5012582;28;20050;-75
2023/12/12 08:47:48;;;;;;;279.25;25.30;;;;;;;;;;5009619;28;20050;-75
2023/12/12 08:50:15;;;;;;;138.82;20.48;;;;;;;;;;5006153;28;20141;-75
2023/12/12 08:52:41;;;;;;;393.05;27.33;;;;;;;;;;4995651;28;20499;-75
2023/12/12 08:55:10;;;;;;;284.20;26.27;;;;;;;;;;4992618;28;20459;-75
2023/12/12 08:57:37;;;;;;;350.50;28.40;;;;;;;;;;5001964;28;20092;-73
2023/12/12 09:00:03;;;;;;;334.60;28.67;;;;;;;;;;4992888;28;20046;-74
2023/12/12 09:02:29;;;;;;;340.95;28.35;;;;;;;;;;5002696;28;20100;-75
2023/12/12 09:04:55;;;;;;;438.02;32.42;;;;;;;;;;4992977;28;20046;-75
2023/12/12 09:07:21;;;;;;;363.77;28.45;;;;;;;;;;4994884;28;20050;-74
2023/12/12 09:09:48;;;;;;;168.68;24.95;;;;;;;;;;5010388;28;20137;-73
2023/12/12 09:12:14;;;;;;;333.55;28.33;;;;;;;;;;5012196;28;20099;-73
2023/12/12 09:14:40;;;;;;;163.18;25.38;;;;;;;;;;5008047;28;20046;-73
2023/12/12 09:17:06;;;;;;;306.73;29.95;;;;;;;;;;5007572;28;20053;-74
2023/12/12 09:19:33;;;;;;;295.23;29.80;;;;;;;;;;5007070;28;20057;-74
2023/12/12 09:21:59;;;;;;;157.40;25.40;;;;;;;;;;4999878;28;20093;-74
2023/12/12 09:24:25;;;;;;;220.25;29.42;;;;;;;;;;4992631;28;20082;-74
2023/12/12 09:26:51;;;;;;;257.98;29.58;;;;;;;;;;5008403;28;20050;-73
2023/12/12 09:29:17;;;;;;;301.88;30.52;;;;;;;;;;5010267;28;20049;-73
2023/12/12 09:31:43;;;;;;;320.48;34.47;;;;;;;;;;5011509;28;20436;-73
2023/12/12 09:34:09;;;;;;;354.90;34.92;;;;;;;;;;5001367;28;20054;-74
2023/12/12 09:36:35;;;;;;;328.80;34.70;;;;;;;;;;4994178;28;20121;-74
2023/12/12 09:39:06;;;;;;;304.20;31.92;;;;;;;;;;4997888;28;20073;-75
2023/12/12 09:41:32;;;;;;;356.20;36.35;;;;;;;;;;4992432;28;20054;-75
2023/12/12 09:44:03;;;;;;;545.38;41.53;;;;;;;;;;5000008;28;20496;-75
2023/12/12 09:46:30;;;;;;;485.88;38.58;;;;;;;;;;4998498;28;20066;-74
2023/12/12 09:48:57;;;;;;;542.55;43.47;;;;;;;;;;5010206;28;20042;-74
2023/12/12 09:51:25;;;;;;;427.45;42.67;;;;;;;;;;5011798;28;20049;-74
2023/12/12 09:53:51;;;;;;;275.38;37.42;;;;;;;;;;4996492;28;20090;-75
2023/12/12 09:56:18;;;;;;;469.15;46.47;;;;;;;;;;5006674;28;20479;-74
2023/12/12 09:58:50;;;;;;;428.40;46.95;;;;;;;;;;5006327;28;20383;-75
2023/12/12 10:01:17;;;;;;;401.15;46.95;;;;;;;;;;5003042;28;20108;-75
2023/12/12 10:03:44;;;;;;;470.17;55.35;;;;;;;;;;4999620;28;20111;-74
2023/12/12 10:06:11;;;;;;;521.78;57.70;;;;;;;;;;5003101;28;20042;-75
2023/12/12 10:08:38;;;;;;;495.80;54.40;;;;;;;;;;5003116;28;20141;-75
2023/12/12 10:11:08;;;;;;;688.03;70.95;;;;;;;;;;5002877;28;20046;-74
2023/12/12 10:13:58;;;;;;;488.10;55.63;;;;;;;;;;5005551;28;20557;-75
2023/12/12 10:16:25;;;;;;;605.10;59.92;;;;;;;;;;5014208;28;20050;-75
2023/12/12 10:18:52;;;;;;;702.80;76.07;;;;;;;;;;5014229;28;20050;-75
2023/12/12 10:21:19;;;;;;;563.60;58.40;;;;;;;;;;5013173;28;20046;-75
2023/12/12 10:23:52;;;;;;;414.27;58.42;;;;;;;;;;5007328;28;20052;-75
2023/12/12 10:26:25;;;;;;;447.65;58.22;;;;;;;;;;5010356;28;20073;-75
2023/12/12 10:28:52;;;;;;;602.50;64.80;;;;;;;;;;4993398;28;20037;-74
2023/12/12 10:31:19;;;;;;;493.40;58.65;;;;;;;;;;5003602;28;20038;-74
2023/12/12 10:33:45;;;;;;;603.08;65.93;;;;;;;;;;5014092;28;20115;-75
2023/12/12 10:36:12;;;;;;;493.70;57.13;;;;;;;;;;5010412;28;20384;-75
2023/12/12 10:38:38;;;;;;;498.73;56.17;;;;;;;;;;5004906;28;20057;-75
2023/12/12 10:41:18;;;;;;;385.60;49.22;;;;;;;;;;5010738;28;20373;-75
2023/12/12 10:43:45;;;;;;;281.42;51.45;;;;;;;;;;5002186;28;20125;-75
2023/12/12 10:46:14;;;;;;;302.20;51.97;;;;;;;;;;4998827;28;20175;-75
2023/12/12 10:48:45;;;;;;;211.98;47.63;;;;;;;;;;5014300;28;20057;-75
2023/12/12 10:51:15;;;;;;;235.85;49.85;;;;;;;;;;4992462;28;20415;-74
2023/12/12 10:53:42;;;;;;;295.45;51.10;;;;;;;;;;5001970;28;20054;-74
2023/12/12 10:56:09;;;;;;;222.90;49.00;;;;;;;;;;5014113;28;20515;-75
2023/12/12 10:58:35;;;;;;;366.40;54.42;;;;;;;;;;5014480;28;20073;-75
2023/12/12 11:01:02;;;;;;;211.98;49.38;;;;;;;;;;5014332;28;20053;-74
2023/12/12 11:03:28;;;;;;;177.60;47.97;;;;;;;;;;5011678;28;20042;-75
2023/12/12 11:05:55;;;;;;;175.80;46.33;;;;;;;;;;5013135;28;20125;-75
2023/12/12 11:08:22;;;;;;;239.65;49.95;;;;;;;;;;5007316;28;20038;-75
2023/12/12 11:10:51;;;;;;;186.27;47.70;;;;;;;;;;5004844;28;20102;-75
2023/12/12 11:13:19;;;;;;;223.60;49.67;;;;;;;;;;5003968;28;20081;-73
2023/12/12 11:15:45;;;;;;;214.85;47.00;;;;;;;;;;4995272;28;20392;-74
2023/12/12 11:18:12;;;;;;;282.10;53.42;;;;;;;;;;4994483;28;20081;-74
2023/12/12 11:20:40;;;;;;;217.10;48.55;;;;;;;;;;4998593;28;20058;-74
2023/12/12 11:23:07;;;;;;;211.25;47.17;;;;;;;;;;5000413;28;20133;-75
2023/12/12 11:25:35;;;;;;;325.45;51.90;;;;;;;;;;5000059;28;20124;-75
2023/12/12 11:28:01;;;;;;;255.80;52.67;;;;;;;;;;5003339;28;20045;-75
2023/12/12 11:30:31;;;;;;;220.13;51.55;;;;;;;;;;5012589;28;20124;-75
2023/12/12 11:32:57;;;;;;;223.85;51.97;;;;;;;;;;5013750;28;20076;-75
2023/12/12 11:35:28;;;;;;;206.55;49.50;;;;;;;;;;5013482;28;20514;-75
2023/12/12 11:37:54;;;;;;;187.43;48.63;;;;;;;;;;5011758;28;20050;-75
2023/12/12 11:40:22;;;;;;;171.60;47.92;;;;;;;;;;5013689;28;20118;-75
2023/12/12 11:42:48;;;;;;;171.75;47.50;;;;;;;;;;5010023;28;20483;-75
2023/12/12 11:45:29;;;;;;;191.88;49.58;;;;;;;;;;4999382;28;20054;-75
2023/12/12 11:47:55;;;;;;;213.38;50.80;;;;;;;;;;4995555;28;20046;-75
2023/12/12 11:50:25;;;;;;;135.32;42.80;;;;;;;;;;4998779;28;20041;-75
2023/12/12 11:52:51;;;;;;;149.80;47.80;;;;;;;;;;5004337;28;20046;-75
2023/12/12 11:55:21;;;;;;;134.55;45.17;;;;;;;;;;5006318;28;20510;-75
2023/12/12 11:57:47;;;;;;;161.27;46.42;;;;;;;;;;4998106;28;20398;-75
2023/12/12 12:00:13;;;;;;;167.80;51.33;;;;;;;;;;5010315;28;20057;-75
2023/12/12 12:02:43;;;;;;;151.32;48.92;;;;;;;;;;5011963;28;20483;-75
2023/12/12 12:05:09;;;;;;;149.65;48.90;;;;;;;;;;5005014;28;20042;-75
2023/12/12 12:07:38;;;;;;;144.32;49.25;;;;;;;;;;5006561;28;20052;-75
2023/12/12 12:10:05;;;;;;;147.07;47.88;;;;;;;;;;5003787;28;20050;-75
2023/12/12 12:12:31;;;;;;;152.35;50.50;;;;;;;;;;4986913;28;20080;-75
2023/12/12 12:15:08;;;;;;;169.10;50.75;;;;;;;;;;4994891;28;20050;-75
2023/12/12 12:17:37;;;;;;;147.90;48.33;;;;;;;;;;5007897;28;20053;-75
2023/12/12 12:20:04;;;;;;;157.40;48.17;;;;;;;;;;5009193;28;20050;-75
2023/12/12 12:22:31;;;;;;;170.80;49.42;;;;;;;;;;5000196;28;20440;-75
2023/12/12 12:24:57;;;;;;;179.20;52.33;;;;;;;;;;5009101;28;20054;-75
2023/12/12 12:27:23;;;;;;;181.65;53.72;;;;;;;;;;5012277;28;20057;-75
2023/12/12 12:30:03;;;;;;;167.20;53.42;;;;;;;;;;4997921;28;20050;-75
2023/12/12 12:32:29;;;;;;;172.80;54.90;;;;;;;;;;5013014;28;20046;-75
2023/12/12 12:35:11;;;;;;;182.90;58.03;;;;;;;;;;5011076;28;20475;-75
2023/12/12 12:37:38;;;;;;;199.40;57.15;;;;;;;;;;5012135;28;20137;-75
2023/12/12 12:40:09;;;;;;;192.75;58.17;;;;;;;;;;5006419;28;20042;-75
2023/12/12 12:42:36;;;;;;;166.85;53.63;;;;;;;;;;5012749;28;20042;-75
2023/12/12 12:45:03;;;;;;;171.82;53.58;;;;;;;;;;5012003;28;20496;-75
2023/12/12 12:47:30;;;;;;;165.85;53.30;;;;;;;;;;5012693;28;20050;-75
2023/12/12 12:49:56;;;;;;;156.93;53.58;;;;;;;;;;5002880;28;20078;-75
2023/12/12 12:52:22;;;;;;;173.88;55.08;;;;;;;;;;5003264;28;20054;-75
2023/12/12 12:54:48;;;;;;;165.85;53.42;;;;;;;;;;5000501;28;20088;-75
2023/12/12 12:57:14;;;;;;;167.07;52.55;;;;;;;;;;5011569;28;20090;-75
2023/12/12 12:59:43;;;;;;;179.60;54.88;;;;;;;;;;5010810;28;20053;-75
2023/12/12 13:02:10;;;;;;;170.50;54.83;;;;;;;;;;5011547;28;20054;-74
2023/12/12 13:04:39;;;;;;;160.80;52.72;;;;;;;;;;5004650;28;20074;-75
2023/12/12 13:07:05;;;;;;;206.68;57.78;;;;;;;;;;5003562;28;20064;-74
2023/12/12 13:09:32;;;;;;;141.23;50.55;;;;;;;;;;5012642;28;20057;-74
2023/12/12 13:11:58;;;;;;;138.60;50.28;;;;;;;;;;5006978;28;20046;-74
2023/12/12 13:14:25;;;;;;;140.02;49.10;;;;;;;;;;5012304;28;20049;-73
2023/12/12 13:16:51;;;;;;;150.27;50.58;;;;;;;;;;5010666;28;20046;-73
2023/12/12 13:19:17;;;;;;;139.00;49.22;;;;;;;;;;5011034;28;20065;-74
2023/12/12 13:21:43;;;;;;;131.30;47.70;;;;;;;;;;5010854;28;20484;-74
2023/12/12 13:24:10;;;;;;;118.68;45.53;;;;;;;;;;5009606;28;20095;-74
2023/12/12 13:26:36;;;;;;;152.65;48.58;;;;;;;;;;5007622;28;20048;-75
2023/12/12 13:29:02;;;;;;;145.57;48.00;;;;;;;;;;4999281;28;20042;-75
2023/12/12 13:31:30;;;;;;;129.00;46.13;;;;;;;;;;5003015;28;20455;-75
2023/12/12 13:33:59;;;;;;;159.80;49.25;;;;;;;;;;5000585;28;20484;-75
2023/12/12 13:36:25;;;;;;;146.82;47.17;;;;;;;;;;5001483;28;20387;-74
2023/12/12 13:38:51;;;;;;;123.78;44.63;;;;;;;;;;5011062;28;20303;-75
2023/12/12 13:41:17;;;;;;;113.53;41.13;;;;;;;;;;5011888;28;20106;-75
2023/12/12 13:43:43;;;;;;;126.60;45.45;;;;;;;;;;5000791;28;20039;-75
2023/12/12 13:46:10;;;;;;;127.07;43.60;;;;;;;;;;5011772;28;20061;-75
2023/12/12 13:48:36;;;;;;;143.65;47.15;;;;;;;;;;5001247;28;20111;-75
2023/12/12 13:51:03;;;;;;;144.77;47.83;;;;;;;;;;5012430;28;20042;-75
2023/12/12 13:53:29;;;;;;;145.50;48.25;;;;;;;;;;5014257;28;20073;-75
2023/12/12 13:55:55;;;;;;;142.38;47.53;;;;;;;;;;5012558;28;20050;-75
2023/12/12 13:58:21;;;;;;;150.82;48.55;;;;;;;;;;4998391;28;20054;-75
2023/12/12 14:00:47;;;;;;;139.07;48.20;;;;;;;;;;5014799;28;20064;-75
2023/12/12 14:03:13;;;;;;;160.55;50.13;;;;;;;;;;5013726;28;20058;-75
2023/12/12 14:05:40;;;;;;;138.98;48.45;;;;;;;;;;5013812;28;20486;-75
2023/12/12 14:08:07;;;;;;;151.02;49.50;;;;;;;;;;5013580;28;20065;-75
2023/12/12 14:10:35;;;;;;;169.32;52.10;;;;;;;;;;4995760;28;20057;-75
2023/12/12 14:13:02;;;;;;;140.65;47.65;;;;;;;;;;4979148;28;20046;-76